< < Back
Terminal Aerodrome Forecast


Current Version              Previous Versions:   1  2  3  4  5  6  7  8  9  

Terminal Aerodrome Forecast

858
FTUS42 KCHS 092320
TAFCHS
TAF
KCHS 092320Z 1000/1024 28014G24KT P6SM BKN070
     FM100600 27012G18KT P6SM SKC
     FM101400 28016G25KT P6SM SKC=

Latest METAR

990
SAUS80 KWBC 100000 CCA
MTRCHS
METAR KCHS 092356Z 27008KT 10SM BKN080 06/M06 A2990 RMK AO2 SLP124
T00561061 10078 20050 51034


USA.gov is the U.S. government's official web portal to all federal, state and local government web resources and services.